Time;durP1;ratioP1;P1;durP2;ratioP2;P2;SDS_P1;SDS_P2;PMS_P1;PMS_P2;Temp;Humidity;BMP_temperature;BMP_pressure;BME280_temperature;BME280_humidity;BME280_pressure;Samples;Min_cycle;Max_cycle;Signal;HPM_P1;HPM_P2
2023/01/16 00:00:34;;;;;;;13.77;7.10;;;2.70;99.90;;;;;;4446109;28;656774;-69
2023/01/16 00:03:21;;;;;;;13.03;6.63;;;2.60;99.90;;;;;;4414131;28;656856;-69
2023/01/16 00:06:08;;;;;;;13.73;7.23;;;2.60;99.90;;;;;;4431973;28;657521;-69
2023/01/16 00:08:56;;;;;;;11.97;6.90;;;2.60;99.90;;;;;;4420509;28;656351;-69
2023/01/16 00:11:43;;;;;;;11.70;6.60;;;2.60;99.90;;;;;;4435615;28;657929;-69
2023/01/16 00:14:30;;;;;;;11.00;6.32;;;2.60;99.90;;;;;;4424883;28;656588;-68
2023/01/16 00:17:19;;;;;;;12.80;6.47;;;2.50;99.90;;;;;;4441279;28;657756;-68
2023/01/16 00:20:07;;;;;;;17.63;9.17;;;2.50;99.90;;;;;;4409971;28;656306;-69
2023/01/16 00:22:54;;;;;;;48.70;22.53;;;2.40;99.90;;;;;;4449547;28;656239;-68
2023/01/16 00:25:42;;;;;;;40.17;20.07;;;2.40;99.90;;;;;;4414839;28;657910;-68
2023/01/16 00:28:30;;;;;;;27.20;8.97;;;2.30;99.90;;;;;;4434156;28;657485;-68
2023/01/16 00:31:17;;;;;;;27.80;15.00;;;2.10;99.90;;;;;;4412249;28;657848;-68
2023/01/16 00:34:06;;;;;;;26.23;13.30;;;2.00;99.90;;;;;;4431426;28;657293;-68
2023/01/16 00:36:53;;;;;;;21.43;11.27;;;1.90;99.90;;;;;;4418697;28;658214;-68
2023/01/16 00:39:40;;;;;;;21.53;10.37;;;1.80;99.90;;;;;;4410610;28;657294;-68
2023/01/16 00:42:28;;;;;;;20.47;9.87;;;1.70;99.90;;;;;;4450763;28;658772;-68
2023/01/16 00:45:15;;;;;;;17.07;8.50;;;1.80;99.90;;;;;;4431514;28;656309;-68
2023/01/16 00:48:03;;;;;;;14.13;7.53;;;1.70;99.90;;;;;;4435054;28;657127;-68
2023/01/16 00:50:52;;;;;;;24.10;11.90;;;1.60;99.90;;;;;;4432611;28;657358;-68
2023/01/16 00:53:39;;;;;;;36.57;15.33;;;1.60;99.90;;;;;;4436781;28;657173;-68
2023/01/16 00:56:26;;;;;;;41.00;16.83;;;1.50;99.90;;;;;;4416175;28;657766;-68
2023/01/16 00:59:13;;;;;;;60.77;24.97;;;1.50;99.90;;;;;;4433113;28;658416;-68
2023/01/16 01:02:00;;;;;;;23.97;11.67;;;1.40;99.90;;;;;;4411013;28;657828;-68
2023/01/16 01:04:48;;;;;;;49.73;19.47;;;1.30;99.90;;;;;;4428643;28;659028;-68
2023/01/16 01:07:37;;;;;;;35.30;14.93;;;1.30;99.90;;;;;;4418702;28;658123;-68
2023/01/16 01:10:24;;;;;;;85.30;25.20;;;1.20;99.90;;;;;;4429649;28;657755;-68
2023/01/16 01:13:11;;;;;;;33.80;12.97;;;1.20;99.90;;;;;;4411194;28;658135;-68
2023/01/16 01:15:58;;;;;;;21.70;10.18;;;1.10;99.90;;;;;;4442438;28;658796;-68
2023/01/16 01:18:45;;;;;;;16.87;6.97;;;1.10;99.90;;;;;;4417514;28;657664;-68
2023/01/16 01:21:33;;;;;;;90.17;9.33;;;1.00;99.90;;;;;;4430475;28;657368;-68
2023/01/16 01:24:22;;;;;;;15.77;7.55;;;1.00;99.90;;;;;;4415982;28;656574;-68
2023/01/16 01:27:09;;;;;;;14.50;7.07;;;0.90;99.90;;;;;;4431621;28;656914;-68
2023/01/16 01:29:56;;;;;;;18.10;7.67;;;0.90;99.90;;;;;;4419454;28;656633;-67
2023/01/16 01:32:43;;;;;;;24.00;10.53;;;0.80;99.90;;;;;;4430037;28;657151;-67
2023/01/16 01:35:31;;;;;;;27.97;11.60;;;0.80;99.90;;;;;;4421596;28;657498;-67
2023/01/16 01:38:18;;;;;;;117.70;13.73;;;0.80;99.90;;;;;;4427736;28;659086;-67
2023/01/16 01:41:07;;;;;;;34.67;11.57;;;0.70;99.90;;;;;;4414292;28;658794;-68
2023/01/16 01:43:55;;;;;;;23.00;9.90;;;0.60;99.90;;;;;;4429193;28;657569;-67
2023/01/16 01:46:44;;;;;;;13.67;7.07;;;0.60;99.90;;;;;;4407216;28;657649;-67
2023/01/16 01:49:31;;;;;;;17.63;8.37;;;0.50;99.90;;;;;;4416900;28;656697;-67
2023/01/16 01:52:19;;;;;;;95.78;8.13;;;0.50;99.90;;;;;;4446930;28;657540;-67
2023/01/16 01:55:07;;;;;;;332.20;11.77;;;0.50;99.90;;;;;;4425318;28;656431;-67
2023/01/16 01:57:57;;;;;;;31.90;7.07;;;0.40;99.90;;;;;;4427381;28;658836;-67
2023/01/16 02:00:44;;;;;;;14.03;7.40;;;0.40;99.90;;;;;;4415127;28;657073;-67
2023/01/16 02:03:33;;;;;;;19.03;8.20;;;0.30;99.90;;;;;;4411175;28;656365;-67
2023/01/16 02:06:21;;;;;;;33.97;12.37;;;0.30;99.90;;;;;;4425062;28;657239;-67
2023/01/16 02:09:08;;;;;;;35.53;14.97;;;0.30;99.90;;;;;;4432185;28;658165;-67
2023/01/16 02:11:56;;;;;;;166.13;28.13;;;0.30;99.90;;;;;;4409764;28;657605;-67
2023/01/16 02:14:46;;;;;;;62.77;23.93;;;0.30;99.90;;;;;;4427590;28;659397;-67
2023/01/16 02:20:46;;;;;;;80.90;25.30;;;0.20;99.90;;;;;;4406117;28;658037;-67
2023/01/16 02:23:59;;;;;;;134.23;23.30;;;0.10;99.90;;;;;;4414244;28;658394;-67
2023/01/16 02:27:09;;;;;;;74.40;25.02;;;0.00;99.90;;;;;;4381586;28;659390;-67
2023/01/16 02:30:09;;;;;;;82.22;24.52;;;0.10;99.90;;;;;;4409304;28;657960;-67
2023/01/16 02:33:03;;;;;;;47.73;19.13;;;0.10;99.90;;;;;;4408859;28;657848;-68
2023/01/16 02:35:56;;;;;;;51.27;18.33;;;0.00;99.90;;;;;;4386073;28;657744;-68
2023/01/16 02:38:47;;;;;;;27.40;12.27;;;0.00;99.90;;;;;;4405411;28;657763;-69
2023/01/16 02:41:41;;;;;;;118.97;15.73;;;0.10;99.90;;;;;;4409586;28;657436;-70
2023/01/16 02:44:33;;;;;;;22.10;10.30;;;0.10;99.90;;;;;;4407158;28;658938;-70
2023/01/16 02:47:23;;;;;;;19.50;9.53;;;0.00;99.90;;;;;;4408820;28;657979;-71
2023/01/16 02:50:13;;;;;;;24.43;11.00;;;0.00;99.90;;;;;;4420970;28;656589;-71
2023/01/16 02:53:04;;;;;;;18.83;10.17;;;0.00;99.90;;;;;;4408875;28;657830;-71
2023/01/16 02:55:53;;;;;;;19.90;10.20;;;0.00;99.90;;;;;;4411531;28;657736;-71
2023/01/16 02:58:42;;;;;;;18.20;9.35;;;0.00;99.90;;;;;;4417566;28;657940;-71
2023/01/16 03:01:29;;;;;;;19.77;9.73;;;-0.10;99.90;;;;;;4438464;28;656732;-70
2023/01/16 03:04:44;;;;;;;18.77;9.87;;;-0.10;99.90;;;;;;4419742;28;657631;-70
2023/01/16 03:07:49;;;;;;;23.87;11.63;;;-0.10;99.90;;;;;;4386608;28;659053;-70
2023/01/16 03:11:06;;;;;;;22.97;11.27;;;-0.10;99.90;;;;;;4388279;28;659327;-70
2023/01/16 03:14:02;;;;;;;24.70;11.27;;;-0.10;99.90;;;;;;4418179;28;659168;-70
2023/01/16 03:17:00;;;;;;;29.92;13.60;;;-0.10;99.90;;;;;;4415031;28;658827;-70
2023/01/16 03:19:59;;;;;;;42.00;16.70;;;-0.20;99.90;;;;;;4395404;28;659101;-70
2023/01/16 03:22:51;;;;;;;51.47;20.40;;;-0.20;99.90;;;;;;4423556;28;659059;-70
2023/01/16 03:25:42;;;;;;;44.90;18.70;;;-0.20;99.90;;;;;;4407444;28;660105;-70
2023/01/16 03:28:34;;;;;;;254.17;62.17;;;-0.20;99.90;;;;;;4407683;28;658803;-70
2023/01/16 03:31:25;;;;;;;110.13;37.93;;;-0.20;99.90;;;;;;4386845;28;660179;-70
2023/01/16 03:34:17;;;;;;;189.17;40.93;;;-0.20;99.90;;;;;;4433156;28;660773;-70
2023/01/16 03:37:06;;;;;;;26.97;11.90;;;-0.20;99.90;;;;;;4408801;28;659538;-70
2023/01/16 03:39:56;;;;;;;21.73;11.10;;;-0.30;99.90;;;;;;4407785;28;659597;-70
2023/01/16 03:42:45;;;;;;;36.57;10.60;;;-0.20;99.90;;;;;;4410681;28;658887;-70
2023/01/16 03:45:33;;;;;;;23.87;10.20;;;-0.20;99.90;;;;;;4405983;28;660191;-70
2023/01/16 03:48:27;;;;;;;25.17;10.90;;;-0.20;99.90;;;;;;4410772;28;658755;-70
2023/01/16 03:51:17;;;;;;;34.70;16.30;;;-0.20;99.90;;;;;;4415318;28;658716;-70
2023/01/16 03:54:07;;;;;;;64.97;26.20;;;-0.20;99.90;;;;;;4425981;28;658775;-70
2023/01/16 03:56:58;;;;;;;33.47;15.25;;;-0.10;99.90;;;;;;4441196;28;659077;-70
2023/01/16 03:59:46;;;;;;;23.87;11.53;;;0.10;99.90;;;;;;4399886;28;659219;-70
2023/01/16 04:02:36;;;;;;;28.63;13.17;;;0.40;99.90;;;;;;4431695;28;658447;-69
2023/01/16 04:05:25;;;;;;;29.25;13.27;;;0.60;99.90;;;;;;4412727;28;657923;-70
2023/01/16 04:08:14;;;;;;;23.87;10.80;;;0.70;99.90;;;;;;4415379;28;658173;-69
2023/01/16 04:11:01;;;;;;;19.83;10.83;;;0.70;99.90;;;;;;4416554;28;657563;-69
2023/01/16 04:13:50;;;;;;;22.97;11.90;;;0.80;99.90;;;;;;4433687;28;657855;-69
2023/01/16 04:16:38;;;;;;;26.03;13.33;;;0.90;99.90;;;;;;4407762;28;658670;-69
2023/01/16 04:19:25;;;;;;;25.60;11.87;;;0.90;99.90;;;;;;4382679;28;657273;-69
2023/01/16 04:22:19;;;;;;;22.23;11.23;;;0.80;99.90;;;;;;4263779;28;657988;-69
2023/01/16 04:25:08;;;;;;;25.77;12.60;;;0.80;99.90;;;;;;4228080;28;657972;-69
2023/01/16 04:27:55;;;;;;;21.97;10.50;;;0.80;99.90;;;;;;4426322;28;657819;-69
2023/01/16 04:30:44;;;;;;;36.50;17.20;;;0.80;99.90;;;;;;4433682;28;659014;-69
2023/01/16 04:33:31;;;;;;;77.70;34.73;;;0.80;99.90;;;;;;4411234;28;658158;-69
2023/01/16 04:36:18;;;;;;;43.03;20.25;;;0.70;99.90;;;;;;4433747;28;659456;-70
2023/01/16 04:39:05;;;;;;;42.17;19.40;;;0.60;99.90;;;;;;4411299;28;658154;-70
2023/01/16 04:41:53;;;;;;;35.33;16.37;;;0.50;99.90;;;;;;4434081;28;657355;-69
2023/01/16 04:44:40;;;;;;;30.45;15.93;;;0.50;99.90;;;;;;4415718;28;657689;-69
2023/01/16 04:47:29;;;;;;;181.87;18.17;;;0.50;99.90;;;;;;4430004;28;658709;-69
2023/01/16 04:50:17;;;;;;;25.90;13.57;;;0.60;99.90;;;;;;4419706;28;658555;-69
2023/01/16 04:53:04;;;;;;;31.30;14.27;;;0.60;99.90;;;;;;4428822;28;658422;-70
2023/01/16 04:55:52;;;;;;;59.37;20.60;;;0.60;99.90;;;;;;4411350;28;657721;-69
2023/01/16 04:58:39;;;;;;;81.03;29.70;;;0.60;99.90;;;;;;4430209;28;657882;-69
2023/01/16 05:01:26;;;;;;;66.70;23.23;;;0.60;99.90;;;;;;4424338;28;657533;-69
2023/01/16 05:04:15;;;;;;;92.97;31.87;;;0.60;99.90;;;;;;4440223;28;658571;-69
2023/01/16 05:07:02;;;;;;;37.03;15.93;;;0.60;99.90;;;;;;4411040;28;657845;-69
2023/01/16 05:09:50;;;;;;;32.07;13.97;;;0.40;99.90;;;;;;4441940;28;658103;-69
2023/01/16 05:12:37;;;;;;;39.47;16.00;;;0.40;99.90;;;;;;4407230;28;658502;-69
2023/01/16 05:15:24;;;;;;;72.53;24.37;;;0.50;99.90;;;;;;4439255;28;658118;-69
2023/01/16 05:18:12;;;;;;;69.78;22.95;;;0.50;99.90;;;;;;4427532;28;657770;-69
2023/01/16 05:21:01;;;;;;;46.73;19.47;;;0.50;99.90;;;;;;4435156;28;657759;-69
2023/01/16 05:23:48;;;;;;;87.40;29.02;;;0.50;99.90;;;;;;4411282;28;659068;-69
2023/01/16 05:26:35;;;;;;;116.53;37.63;;;0.50;99.90;;;;;;4410200;28;657398;-69
2023/01/16 05:29:23;;;;;;;142.27;44.83;;;0.50;99.90;;;;;;4442646;28;659687;-69
2023/01/16 05:32:10;;;;;;;36.03;15.13;;;0.60;99.90;;;;;;4432493;28;658507;-69
2023/01/16 05:35:00;;;;;;;35.90;15.33;;;0.60;99.90;;;;;;4428436;28;658421;-69
2023/01/16 05:37:49;;;;;;;59.50;25.63;;;0.50;99.90;;;;;;4410171;28;658595;-69
2023/01/16 05:40:36;;;;;;;47.47;18.17;;;0.50;99.90;;;;;;4422324;28;657908;-69
2023/01/16 05:43:23;;;;;;;34.07;15.30;;;0.50;99.90;;;;;;4431268;28;658953;-69
2023/01/16 05:46:10;;;;;;;36.08;15.40;;;0.50;99.90;;;;;;4424827;28;657608;-69
2023/01/16 05:48:57;;;;;;;41.77;17.37;;;0.50;99.90;;;;;;4445354;28;658288;-69
2023/01/16 05:51:45;;;;;;;48.07;19.40;;;0.50;99.90;;;;;;4431745;28;657521;-70
2023/01/16 05:54:34;;;;;;;55.70;22.90;;;0.40;99.90;;;;;;4432569;28;658492;-70
2023/01/16 05:57:22;;;;;;;44.77;21.23;;;0.40;99.90;;;;;;4416787;28;657819;-70
2023/01/16 06:00:10;;;;;;;48.10;20.50;;;0.40;99.90;;;;;;4430403;28;657982;-70
2023/01/16 06:02:57;;;;;;;35.22;16.67;;;0.50;99.90;;;;;;4409946;28;658620;-70
2023/01/16 06:05:45;;;;;;;34.30;15.50;;;0.50;99.90;;;;;;4432348;28;657761;-70
2023/01/16 06:08:32;;;;;;;1569.87;63.60;;;0.50;99.90;;;;;;4405992;28;658261;-70
2023/01/16 06:11:22;;;;;;;34.80;15.57;;;0.50;99.90;;;;;;4423374;28;660024;-70
2023/01/16 06:14:09;;;;;;;42.40;17.63;;;0.40;99.90;;;;;;4457588;28;657057;-70
2023/01/16 06:16:56;;;;;;;113.50;27.33;;;0.40;99.90;;;;;;4409660;28;657753;-70
2023/01/16 06:19:44;;;;;;;71.70;24.43;;;0.40;99.90;;;;;;4432526;28;658585;-70
2023/01/16 06:22:31;;;;;;;57.70;22.70;;;0.50;99.90;;;;;;4412287;28;657527;-70
2023/01/16 06:25:18;;;;;;;61.27;23.23;;;0.50;99.90;;;;;;4430736;28;657498;-70
2023/01/16 06:28:07;;;;;;;59.60;20.92;;;0.40;99.90;;;;;;4408611;28;657846;-70
2023/01/16 06:30:54;;;;;;;41.43;17.87;;;0.40;99.90;;;;;;4429157;28;658006;-70
2023/01/16 06:33:42;;;;;;;51.53;20.03;;;0.30;99.90;;;;;;4409630;28;657920;-70
2023/01/16 06:36:29;;;;;;;42.80;19.30;;;0.40;99.90;;;;;;4430818;28;657181;-70
2023/01/16 06:39:16;;;;;;;56.90;21.27;;;0.40;99.90;;;;;;4408828;28;657344;-70
2023/01/16 06:42:04;;;;;;;96.80;29.73;;;0.40;99.90;;;;;;4431274;28;658502;-70
2023/01/16 06:44:53;;;;;;;81.93;29.23;;;0.40;99.90;;;;;;4409256;28;657846;-70
2023/01/16 06:47:40;;;;;;;68.72;25.88;;;0.40;99.90;;;;;;4409641;28;657447;-70
2023/01/16 06:50:27;;;;;;;84.90;31.23;;;0.40;99.90;;;;;;4438050;28;658568;-70
2023/01/16 06:53:15;;;;;;;68.40;23.23;;;0.50;99.90;;;;;;4423108;28;657663;-70
2023/01/16 06:56:02;;;;;;;66.67;25.73;;;0.40;99.90;;;;;;4437735;28;658403;-70
2023/01/16 06:58:50;;;;;;;72.63;26.70;;;0.40;99.90;;;;;;4433374;28;657388;-70
2023/01/16 07:01:39;;;;;;;75.43;28.47;;;0.40;99.90;;;;;;4437586;28;657833;-70
2023/01/16 07:04:26;;;;;;;76.20;31.43;;;0.40;99.90;;;;;;4426687;28;658203;-70
2023/01/16 07:07:13;;;;;;;145.63;59.00;;;0.50;99.90;;;;;;4431865;28;657655;-70
2023/01/16 07:10:01;;;;;;;90.40;33.80;;;0.50;99.90;;;;;;4419587;28;659443;-70
2023/01/16 07:12:48;;;;;;;92.80;34.73;;;0.50;99.90;;;;;;4431983;28;658745;-70
2023/01/16 07:24:56;;;;;;;92.67;40.00;;;0.60;99.90;;;;;;4410828;28;657737;-70
2023/01/16 07:27:43;;;;;;;97.57;44.00;;;0.60;99.90;;;;;;4432862;28;658352;-69
2023/01/16 07:30:31;;;;;;;120.13;52.23;;;0.70;99.90;;;;;;4415689;28;657245;-69
2023/01/16 07:33:18;;;;;;;111.67;46.17;;;0.70;99.90;;;;;;4434318;28;659950;-69
2023/01/16 07:36:08;;;;;;;135.13;54.87;;;0.70;99.90;;;;;;4407891;28;658418;-69
2023/01/16 07:38:55;;;;;;;159.60;67.63;;;0.80;99.90;;;;;;4415323;28;658783;-69
2023/01/16 07:41:42;;;;;;;173.67;73.07;;;0.80;99.90;;;;;;4432415;28;659281;-69
2023/01/16 07:44:30;;;;;;;152.90;65.93;;;0.90;99.90;;;;;;4430205;28;659023;-68
2023/01/16 07:47:17;;;;;;;93.00;44.03;;;0.90;99.90;;;;;;4423195;28;659382;-68
2023/01/16 07:50:05;;;;;;;84.30;36.70;;;0.90;99.90;;;;;;4431582;28;657533;-68
2023/01/16 07:52:53;;;;;;;84.20;38.90;;;1.00;99.90;;;;;;4426004;28;658675;-67
2023/01/16 07:55:40;;;;;;;65.90;30.13;;;1.10;99.90;;;;;;4426110;28;658005;-67
2023/01/16 07:58:28;;;;;;;78.13;35.80;;;1.20;99.90;;;;;;4433852;28;658466;-67
2023/01/16 08:01:16;;;;;;;60.00;28.93;;;1.20;99.90;;;;;;4411164;28;657428;-67
2023/01/16 08:04:03;;;;;;;50.33;24.30;;;1.20;99.90;;;;;;4433932;28;658186;-66
2023/01/16 08:06:50;;;;;;;55.73;26.10;;;1.30;99.90;;;;;;4413399;28;658282;-66
2023/01/16 08:09:39;;;;;;;70.87;36.80;;;1.40;99.90;;;;;;4433914;28;658853;-66
2023/01/16 08:12:26;;;;;;;60.77;29.80;;;1.50;99.90;;;;;;4417628;28;657808;-66
2023/01/16 08:15:14;;;;;;;64.10;29.03;;;1.50;99.90;;;;;;4431076;28;657764;-66
2023/01/16 08:18:01;;;;;;;64.00;30.30;;;1.60;99.90;;;;;;4416940;28;657645;-66
2023/01/16 08:20:48;;;;;;;70.90;34.60;;;1.60;99.90;;;;;;4445214;28;657966;-66
2023/01/16 08:23:35;;;;;;;64.17;30.53;;;1.70;99.90;;;;;;4410730;28;657308;-66
2023/01/16 08:26:24;;;;;;;65.40;34.23;;;1.80;99.90;;;;;;4430599;28;658536;-66
2023/01/16 08:29:11;;;;;;;71.30;32.00;;;1.90;99.90;;;;;;4425137;28;657564;-66
2023/01/16 08:31:58;;;;;;;43.70;23.57;;;2.00;99.90;;;;;;4438653;28;658539;-66
2023/01/16 08:34:46;;;;;;;54.20;25.90;;;2.00;99.90;;;;;;4418259;28;657697;-66
2023/01/16 08:37:33;;;;;;;38.17;22.13;;;2.10;99.90;;;;;;4435854;28;658659;-66
2023/01/16 08:40:20;;;;;;;36.92;22.05;;;2.20;99.90;;;;;;4410399;28;657908;-66
2023/01/16 08:52:29;;;;;;;35.37;17.53;;;2.70;99.90;;;;;;4387465;28;658097;-66
2023/01/16 08:55:17;;;;;;;33.07;17.90;;;2.70;99.90;;;;;;4406029;28;658309;-66
2023/01/16 08:58:04;;;;;;;29.23;16.70;;;2.80;99.90;;;;;;4429827;28;657577;-66
2023/01/16 09:00:53;;;;;;;28.08;16.02;;;2.80;99.90;;;;;;4410913;28;658162;-66
2023/01/16 09:03:40;;;;;;;32.43;17.63;;;2.90;99.90;;;;;;4419163;28;657928;-66
2023/01/16 09:06:27;;;;;;;28.17;17.03;;;3.00;99.90;;;;;;4445284;28;657734;-66
2023/01/16 09:09:15;;;;;;;29.23;16.70;;;3.10;99.90;;;;;;4429077;28;657363;-66
2023/01/16 09:15:08;;;;;;;27.43;15.10;;;3.20;99.90;;;;;;4383687;28;658709;-66
2023/01/16 09:17:57;;;;;;;31.70;16.67;;;3.30;99.90;;;;;;4434425;28;657425;-66
2023/01/16 09:20:44;;;;;;;27.87;15.07;;;3.40;99.90;;;;;;4433271;28;657463;-66
2023/01/16 09:23:31;;;;;;;24.47;11.53;;;3.40;99.90;;;;;;4409991;28;657667;-67
2023/01/16 09:26:19;;;;;;;21.87;10.40;;;3.50;99.90;;;;;;4428748;28;658357;-67
2023/01/16 09:29:06;;;;;;;17.80;7.67;;;3.50;99.90;;;;;;4434419;28;657677;-66
2023/01/16 09:31:53;;;;;;;22.08;10.52;;;3.60;99.90;;;;;;4444572;28;657620;-67
2023/01/16 09:34:42;;;;;;;17.50;9.97;;;3.70;99.90;;;;;;4422189;28;657611;-67
2023/01/16 09:37:29;;;;;;;28.80;14.93;;;3.70;99.90;;;;;;4430142;28;657128;-67
2023/01/16 09:40:18;;;;;;;42.37;21.97;;;3.80;99.90;;;;;;4418222;28;657916;-67
2023/01/16 09:46:19;;;;;;;45.77;26.13;;;4.00;99.90;;;;;;4406205;28;657727;-67
2023/01/16 09:49:11;;;;;;;35.00;20.87;;;4.10;99.90;;;;;;4415878;28;657833;-67
2023/01/16 10:01:24;;;;;;;27.47;14.40;;;4.40;99.90;;;;;;4410757;28;658185;-67
2023/01/16 10:04:17;;;;;;;30.63;15.37;;;4.60;99.90;;;;;;4406275;28;657267;-68
2023/01/16 10:07:31;;;;;;;36.40;19.00;;;4.70;99.90;;;;;;4405724;28;657775;-68
2023/01/16 10:10:35;;;;;;;36.70;19.33;;;4.90;99.90;;;;;;4414630;28;657930;-68
2023/01/16 10:13:46;;;;;;;38.57;19.03;;;5.30;99.90;;;;;;4393530;28;658283;-68
2023/01/16 10:16:40;;;;;;;20.87;9.20;;;5.70;99.90;;;;;;4416742;28;657777;-69
2023/01/16 10:19:39;;;;;;;14.63;8.00;;;5.80;99.90;;;;;;4388563;28;657046;-69
2023/01/16 10:22:34;;;;;;;14.23;7.83;;;6.00;99.90;;;;;;4336291;28;656982;-70
2023/01/16 10:25:23;;;;;;;12.48;5.82;;;6.10;99.90;;;;;;4241790;28;656641;-70
2023/01/16 10:28:19;;;;;;;9.07;5.30;;;6.30;99.90;;;;;;4277609;28;656935;-70
2023/01/16 10:31:09;;;;;;;7.87;4.60;;;6.40;99.90;;;;;;4425660;28;655486;-71
2023/01/16 10:33:59;;;;;;;9.63;5.03;;;6.50;99.90;;;;;;4408960;28;655445;-70
2023/01/16 10:36:48;;;;;;;12.67;6.30;;;6.50;99.90;;;;;;4412409;28;655726;-71
2023/01/16 10:39:37;;;;;;;7.83;3.57;;;6.70;99.90;;;;;;4424159;28;656419;-71
2023/01/16 10:51:41;;;;;;;4.28;2.63;;;7.10;99.90;;;;;;4412551;28;655391;-71
2023/01/16 10:54:28;;;;;;;4.70;3.00;;;6.90;99.90;;;;;;4440830;28;656892;-71
2023/01/16 10:57:18;;;;;;;11.10;5.93;;;6.80;99.90;;;;;;4423188;28;655949;-71
2023/01/16 11:00:07;;;;;;;10.87;6.40;;;6.70;99.90;;;;;;4420619;28;656325;-71
2023/01/16 11:02:54;;;;;;;14.10;8.30;;;6.70;99.90;;;;;;4429424;28;656905;-71
2023/01/16 11:05:41;;;;;;;13.07;6.13;;;6.80;99.90;;;;;;4418855;28;656908;-71
2023/01/16 11:08:28;;;;;;;11.90;5.20;;;7.10;99.90;;;;;;4450112;28;657293;-71
2023/01/16 11:20:49;;;;;;;5.93;3.77;;;8.50;99.90;;;;;;4348357;28;656096;-72
2023/01/16 11:23:38;;;;;;;7.53;3.50;;;8.60;99.90;;;;;;4375362;28;655938;-72
2023/01/16 11:26:26;;;;;;;5.97;3.40;;;8.50;99.90;;;;;;4401226;28;656113;-72
2023/01/16 11:29:13;;;;;;;8.23;4.07;;;8.70;99.90;;;;;;4437510;28;656243;-71
2023/01/16 11:32:06;;;;;;;6.10;3.70;;;9.20;99.90;;;;;;4414801;28;655725;-72
2023/01/16 11:34:54;;;;;;;5.93;3.77;;;9.40;99.90;;;;;;4419114;28;656185;-71
2023/01/16 11:37:43;;;;;;;7.17;4.00;;;9.60;99.90;;;;;;4416289;28;655543;-71
2023/01/16 11:40:32;;;;;;;6.43;3.60;;;9.60;99.90;;;;;;4427388;28;655980;-71
2023/01/16 11:46:31;;;;;;;7.30;4.40;;;9.20;99.90;;;;;;4410933;28;655672;-71
2023/01/16 11:49:25;;;;;;;5.80;3.90;;;8.60;99.90;;;;;;4415688;28;655609;-71
2023/01/16 11:52:26;;;;;;;6.53;3.57;;;8.10;99.90;;;;;;4391716;28;655832;-71
2023/01/16 11:55:14;;;;;;;6.87;4.23;;;7.90;99.90;;;;;;4421840;28;655609;-71
2023/01/16 11:58:02;;;;;;;14.10;5.83;;;8.00;99.90;;;;;;4413793;28;655668;-71
2023/01/16 12:00:53;;;;;;;12.47;6.03;;;8.30;99.90;;;;;;4435332;28;656258;-71
2023/01/16 12:03:56;;;;;;;12.80;6.83;;;8.40;99.90;;;;;;4398823;28;656702;-71
2023/01/16 12:06:49;;;;;;;14.23;7.63;;;8.20;99.90;;;;;;4408946;28;657282;-71
2023/01/16 12:09:44;;;;;;;14.00;4.80;;;8.40;99.90;;;;;;4415605;28;656321;-71
2023/01/16 12:15:42;;;;;;;8.17;4.40;;;8.00;99.90;;;;;;4432380;28;656840;-71
2023/01/16 12:18:33;;;;;;;9.33;4.47;;;8.10;99.90;;;;;;4410202;28;655938;-71
2023/01/16 12:21:30;;;;;;;8.17;3.90;;;8.20;99.90;;;;;;4402028;28;655949;-71
2023/01/16 12:24:31;;;;;;;7.20;3.97;;;8.50;99.90;;;;;;4394628;28;656382;-71
2023/01/16 12:27:23;;;;;;;10.13;4.70;;;9.50;99.90;;;;;;4415445;28;656123;-71
2023/01/16 12:30:20;;;;;;;8.50;5.10;;;10.90;99.90;;;;;;4406910;28;656356;-71
2023/01/16 12:33:15;;;;;;;13.30;7.27;;;12.00;98.20;;;;;;4386243;28;657178;-71
2023/01/16 12:36:04;;;;;;;13.80;7.17;;;12.10;92.30;;;;;;4405031;28;658247;-71
2023/01/16 12:38:53;;;;;;;51.93;16.30;;;12.80;91.00;;;;;;4419672;28;657402;-71
2023/01/16 12:45:01;;;;;;;12.77;6.20;;;12.70;84.20;;;;;;4345660;28;657861;-71
2023/01/16 12:47:55;;;;;;;9.13;5.37;;;12.70;82.40;;;;;;4405416;28;657638;-71
2023/01/16 12:50:50;;;;;;;9.30;5.30;;;11.90;82.40;;;;;;4389012;28;657677;-71
2023/01/16 12:54:12;;;;;;;10.23;6.13;;;11.80;84.80;;;;;;4388427;28;657143;-71
2023/01/16 12:57:17;;;;;;;16.07;9.70;;;11.70;87.10;;;;;;4412987;28;658013;-71
2023/01/16 13:00:07;;;;;;;9.67;5.23;;;10.80;85.20;;;;;;4433244;28;658501;-71
2023/01/16 13:02:57;;;;;;;9.37;5.53;;;10.60;90.20;;;;;;4427309;28;656626;-71
2023/01/16 13:05:44;;;;;;;11.53;6.50;;;10.50;92.10;;;;;;4448733;28;656999;-71
2023/01/16 13:08:34;;;;;;;10.97;6.20;;;10.20;92.20;;;;;;4417467;28;657678;-72
2023/01/16 13:14:30;;;;;;;11.07;6.50;;;9.60;96.80;;;;;;4411152;28;656897;-71
2023/01/16 13:17:20;;;;;;;10.63;6.60;;;9.50;97.20;;;;;;4407199;28;657318;-71
2023/01/16 13:20:11;;;;;;;12.65;7.63;;;9.10;99.60;;;;;;4412049;28;657936;-71
2023/01/16 13:23:03;;;;;;;15.07;7.90;;;8.60;99.90;;;;;;4414475;28;657845;-71
2023/01/16 13:25:56;;;;;;;16.73;8.90;;;8.40;99.90;;;;;;4391646;28;656791;-71
2023/01/16 13:28:45;;;;;;;22.90;12.17;;;9.00;99.90;;;;;;4407407;28;657346;-71
2023/01/16 13:31:35;;;;;;;15.00;8.07;;;9.80;99.90;;;;;;4407095;28;658757;-71
2023/01/16 13:34:24;;;;;;;17.57;9.03;;;10.40;99.90;;;;;;4412210;28;657378;-71
2023/01/16 13:37:49;;;;;;;14.77;8.03;;;10.30;97.80;;;;;;4415101;28;657854;-71
2023/01/16 13:40:57;;;;;;;14.80;8.03;;;10.30;96.90;;;;;;4411493;28;657497;-71
2023/01/16 13:46:52;;;;;;;14.90;8.50;;;9.60;98.50;;;;;;4395726;28;657877;-71
2023/01/16 13:49:39;;;;;;;16.17;8.75;;;9.00;99.90;;;;;;4437459;28;656582;-71
2023/01/16 13:52:27;;;;;;;19.47;8.47;;;9.00;99.90;;;;;;4407324;28;657134;-71
2023/01/16 13:55:23;;;;;;;19.93;9.33;;;9.10;99.90;;;;;;4428494;28;656557;-71
2023/01/16 13:58:14;;;;;;;21.37;10.67;;;9.20;99.90;;;;;;4399974;28;656510;-71
2023/01/16 14:01:02;;;;;;;22.93;11.23;;;9.40;99.90;;;;;;4431088;28;657529;-71
2023/01/16 14:04:19;;;;;;;25.63;11.10;;;9.60;99.90;;;;;;4429001;28;657450;-71
2023/01/16 14:10:44;;;;;;;12.90;7.10;;;10.20;97.00;;;;;;4409300;28;658031;-71
2023/01/16 14:13:33;;;;;;;9.73;5.53;;;10.50;97.00;;;;;;4409136;28;657796;-71
2023/01/16 14:16:33;;;;;;;11.53;5.90;;;10.50;94.80;;;;;;4434229;28;656692;-71
2023/01/16 14:19:21;;;;;;;17.73;10.17;;;10.10;94.50;;;;;;4419594;28;657860;-71
2023/01/16 14:25:22;;;;;;;13.67;6.97;;;9.60;96.20;;;;;;4405733;28;658170;-71
2023/01/16 14:28:16;;;;;;;14.87;7.60;;;8.80;98.30;;;;;;4427266;28;656544;-71
2023/01/16 14:31:04;;;;;;;18.10;9.10;;;8.20;99.90;;;;;;4410423;28;656908;-71
2023/01/16 14:33:52;;;;;;;17.53;9.07;;;7.50;99.90;;;;;;4411167;28;656302;-71
2023/01/16 14:36:40;;;;;;;25.13;12.03;;;6.90;99.90;;;;;;4429097;28;656572;-71
2023/01/16 14:39:31;;;;;;;26.00;12.07;;;6.50;99.90;;;;;;4432878;28;657160;-71
2023/01/16 14:55:13;;;;;;;43.10;20.77;;;5.10;99.90;;;;;;4409452;28;657619;-71
2023/01/16 14:58:00;;;;;;;41.40;19.88;;;4.80;99.90;;;;;;4386503;28;657731;-71
2023/01/16 15:00:49;;;;;;;45.33;20.17;;;4.60;99.90;;;;;;4427918;28;657952;-71
2023/01/16 15:03:41;;;;;;;47.53;22.13;;;4.50;99.90;;;;;;4405021;28;657709;-71
2023/01/16 15:06:29;;;;;;;54.90;25.27;;;4.40;99.90;;;;;;4405541;28;658134;-71
2023/01/16 15:09:17;;;;;;;62.87;27.60;;;4.30;99.90;;;;;;4409373;28;657288;-71
2023/01/16 15:12:11;;;;;;;73.73;30.13;;;4.20;99.90;;;;;;4436356;28;657338;-71
2023/01/16 15:14:59;;;;;;;106.47;39.83;;;4.10;99.90;;;;;;4415364;28;657650;-71
2023/01/16 15:24:04;;;;;;;45.43;23.53;;;3.80;99.90;;;;;;4417238;28;658369;-71
2023/01/16 15:26:55;;;;;;;56.93;26.90;;;3.70;99.90;;;;;;4405284;28;657296;-70
2023/01/16 15:29:48;;;;;;;63.43;28.80;;;3.60;99.90;;;;;;4405587;28;658600;-71
2023/01/16 15:32:54;;;;;;;55.00;27.40;;;3.50;99.90;;;;;;4386091;28;657910;-71
2023/01/16 15:35:41;;;;;;;73.63;32.45;;;3.30;99.90;;;;;;4415574;28;657351;-71
2023/01/16 15:38:28;;;;;;;54.83;26.90;;;3.20;99.90;;;;;;4431836;28;658310;-71
2023/01/16 15:41:18;;;;;;;60.43;28.40;;;3.10;99.90;;;;;;4408546;28;657916;-70
2023/01/16 15:47:20;;;;;;;117.47;45.33;;;3.00;99.90;;;;;;4384887;28;658917;-70
2023/01/16 15:50:17;;;;;;;91.07;36.67;;;2.90;99.90;;;;;;4394262;28;658874;-71
2023/01/16 15:53:04;;;;;;;104.20;40.80;;;2.80;99.90;;;;;;4411011;28;658045;-70
2023/01/16 15:55:52;;;;;;;184.30;55.87;;;2.80;99.90;;;;;;4407437;28;658745;-70
2023/01/16 15:58:39;;;;;;;86.97;34.72;;;2.70;99.90;;;;;;4430061;28;658125;-70
2023/01/16 16:01:27;;;;;;;69.40;30.40;;;2.70;99.90;;;;;;4420633;28;657976;-71
2023/01/16 16:04:17;;;;;;;68.03;29.40;;;2.70;99.90;;;;;;4440428;28;657325;-71